This is the latest recevied weather packets stored in our database for station/object WMSA. If no packets are shown the sender has not sent any weather packets the latest 10 day(s).
| Time | Temp. | Humidity | Pressure | Rain* | Wind** | Luminosity | Snow |
|---|---|---|---|---|---|---|---|
| 1788178455 | 30° C | 66% | 1010 hPa | - | - | - | - |
| 1788174855 | 30.56° C | 58% | 1009 hPa | - | - | - | - |
| 1788171267 | 31.67° C | 55% | 1009 hPa | - | - | - | - |
| 1788167655 | 31.67° C | 55% | 1009 hPa | - | - | - | - |
| 1788164055 | 32.78° C | 55% | 1009 hPa | - | - | - | - |
| 1788160455 | 33.89° C | 56% | 1010 hPa | - | - | - | - |
| 1788156859 | 35° C | 49% | 1010 hPa | - | - | - | - |
| 1788153254 | 33.89° C | 52% | 1011 hPa | - | - | - | - |
| 1788149654 | 32.78° C | 55% | 1011 hPa | - | - | - | - |
| 1788146054 | 30.56° C | 66% | 1012 hPa | - | - | - | - |
| 1788113047 | 28.89° C | 79% | 1012 hPa | - | - | - | - |
| 1788110055 | 28.89° C | 79% | 1012 hPa | - | - | - | - |
| 1788106459 | 28.89° C | 79% | 1012 hPa | - | - | - | - |
| 1788102853 | 30° C | 74% | 1011 hPa | - | - | - | - |
| 1788099253 | 30.56° C | 62% | 1011 hPa | - | - | - | - |
| 1788095654 | 30.56° C | 58% | 1010 hPa | - | - | - | - |
| 1788092057 | 30.56° C | 62% | 1010 hPa | - | - | - | - |
| 1788088452 | 31.67° C | 59% | 1008 hPa | - | - | - | - |
| 1788084852 | 31.67° C | 62% | 1008 hPa | - | - | - | - |
| 1788081254 | 32.78° C | 55% | 1008 hPa | - | - | - | - |
| 1788077657 | 35° C | 49% | 1008 hPa | - | - | - | - |
| 1788074052 | 33.89° C | 56% | 1009 hPa | - | - | - | - |
| 1788070452 | 33.89° C | 56% | 1010 hPa | - | - | - | - |
| 1788066853 | 33.89° C | 56% | 1011 hPa | - | - | - | - |
| 1788063251 | 32.78° C | 59% | 1012 hPa | - | - | - | - |
* Rain since midnight (hover to see other rain measurements)
** Current wind speed in m/s (hover to see current wind gust speed)